Time;durP1;ratioP1;P1;durP2;ratioP2;P2;SDS_P1;SDS_P2;PMS_P1;PMS_P2;Temp;Humidity;BMP_temperature;BMP_pressure;BME280_temperature;BME280_humidity;BME280_pressure;Samples;Min_cycle;Max_cycle;Signal;HPM_P1;HPM_P2
2023/11/30 00:02:32;;;;;;;3.43;2.83;;;;;;;;;;4938381;29;21065;-85
2023/11/30 00:05:36;;;;;;;5.67;3.87;;;;;;;;;;4937373;29;20540;-85
2023/11/30 00:08:41;;;;;;;5.87;4.33;;;;;;;;;;4936515;29;20990;-85
2023/11/30 00:11:45;;;;;;;6.03;4.37;;;;;;;;;;4938174;29;20548;-85
2023/11/30 00:14:49;;;;;;;7.63;4.90;;;;;;;;;;4937329;29;21077;-85
2023/11/30 00:17:53;;;;;;;7.47;4.70;;;;;;;;;;4936268;29;20647;-85
2023/11/30 00:20:57;;;;;;;6.77;4.83;;;;;;;;;;4941723;29;20536;-84
2023/11/30 00:24:02;;;;;;;6.63;4.60;;;;;;;;;;4942713;29;20544;-84
2023/11/30 00:27:05;;;;;;;5.43;4.23;;;;;;;;;;4941189;29;20623;-84
2023/11/30 00:30:10;;;;;;;5.80;4.27;;;;;;;;;;4940982;29;20607;-84
2023/11/30 00:33:14;;;;;;;4.73;3.73;;;;;;;;;;4941812;29;20560;-84
2023/11/30 00:36:19;;;;;;;5.47;3.70;;;;;;;;;;4940864;29;20560;-84
2023/11/30 00:39:23;;;;;;;4.23;3.53;;;;;;;;;;4930028;29;20536;-84
2023/11/30 00:42:27;;;;;;;4.30;3.20;;;;;;;;;;4940989;29;20544;-84
2023/11/30 00:45:32;;;;;;;4.07;3.30;;;;;;;;;;4940947;29;20556;-84
2023/11/30 00:48:36;;;;;;;6.70;3.50;;;;;;;;;;4940590;29;20624;-84
2023/11/30 00:51:40;;;;;;;4.77;3.33;;;;;;;;;;4919301;29;20544;-84
2023/11/30 00:54:44;;;;;;;4.20;3.67;;;;;;;;;;4941058;29;20556;-84
2023/11/30 00:57:49;;;;;;;4.43;3.23;;;;;;;;;;4940646;29;20624;-84
2023/11/30 01:00:53;;;;;;;5.17;3.53;;;;;;;;;;4941854;29;20532;-84
2023/11/30 01:03:57;;;;;;;4.93;3.50;;;;;;;;;;4940248;29;20541;-84
2023/11/30 01:07:01;;;;;;;3.67;3.17;;;;;;;;;;4930209;29;20623;-84
2023/11/30 01:10:06;;;;;;;5.27;3.70;;;;;;;;;;4940770;29;20935;-84
2023/11/30 01:13:10;;;;;;;5.87;4.17;;;;;;;;;;4940813;29;20545;-84
2023/11/30 01:16:14;;;;;;;5.40;3.47;;;;;;;;;;4941307;29;20541;-83
2023/11/30 01:19:18;;;;;;;5.83;3.57;;;;;;;;;;4941046;29;20537;-84
2023/11/30 01:22:23;;;;;;;4.53;3.43;;;;;;;;;;4918179;29;20544;-84
2023/11/30 01:25:27;;;;;;;5.33;3.83;;;;;;;;;;4939492;29;20549;-84
2023/11/30 01:28:31;;;;;;;4.50;3.80;;;;;;;;;;4939296;29;20619;-84
2023/11/30 01:31:35;;;;;;;5.73;4.00;;;;;;;;;;4939258;29;20533;-84
2023/11/30 01:34:39;;;;;;;5.47;3.83;;;;;;;;;;4940694;29;21073;-84
2023/11/30 01:37:44;;;;;;;8.07;4.13;;;;;;;;;;4918831;29;21172;-84
2023/11/30 01:40:49;;;;;;;8.47;4.17;;;;;;;;;;4939459;29;20537;-84
2023/11/30 01:43:53;;;;;;;6.30;3.83;;;;;;;;;;4940419;29;20552;-84
2023/11/30 01:46:59;;;;;;;7.37;4.03;;;;;;;;;;4938824;29;20616;-84
2023/11/30 01:50:03;;;;;;;6.37;3.43;;;;;;;;;;4917684;29;20596;-84
2023/11/30 01:53:10;;;;;;;5.30;3.80;;;;;;;;;;4939483;29;20541;-84
2023/11/30 01:56:15;;;;;;;6.40;4.23;;;;;;;;;;4918203;29;20545;-84
2023/11/30 01:59:20;;;;;;;5.43;3.80;;;;;;;;;;4940028;29;20533;-84
2023/11/30 02:02:25;;;;;;;5.53;4.27;;;;;;;;;;4917714;29;20556;-84
2023/11/30 02:05:29;;;;;;;6.03;4.00;;;;;;;;;;4939985;29;20541;-83
2023/11/30 02:08:34;;;;;;;5.50;4.13;;;;;;;;;;4929055;29;20615;-84
2023/11/30 02:11:38;;;;;;;5.23;4.43;;;;;;;;;;4928428;29;20532;-84
2023/11/30 02:14:43;;;;;;;6.23;4.30;;;;;;;;;;4928994;29;20888;-84
2023/11/30 02:17:47;;;;;;;6.93;4.13;;;;;;;;;;4939581;29;21207;-84
2023/11/30 02:20:51;;;;;;;5.10;3.90;;;;;;;;;;4939897;29;20537;-84
2023/11/30 02:23:55;;;;;;;5.73;4.03;;;;;;;;;;4939667;29;20544;-84
2023/11/30 02:26:59;;;;;;;6.83;4.33;;;;;;;;;;4928494;29;20615;-84
2023/11/30 02:30:04;;;;;;;8.20;4.40;;;;;;;;;;4939786;29;20608;-84
2023/11/30 02:33:08;;;;;;;6.47;4.43;;;;;;;;;;4928895;29;20545;-84
2023/11/30 02:36:12;;;;;;;7.47;4.77;;;;;;;;;;4939391;29;20895;-84
2023/11/30 02:39:16;;;;;;;7.53;5.00;;;;;;;;;;4939687;29;20897;-84
2023/11/30 02:42:21;;;;;;;6.33;4.27;;;;;;;;;;4939536;29;20541;-84
2023/11/30 02:45:25;;;;;;;6.57;4.53;;;;;;;;;;4929090;29;20549;-84
2023/11/30 02:48:29;;;;;;;7.27;4.80;;;;;;;;;;4940006;29;20616;-84
2023/11/30 02:51:33;;;;;;;6.83;4.53;;;;;;;;;;4938842;29;20887;-85
2023/11/30 02:54:37;;;;;;;6.70;4.00;;;;;;;;;;4936862;29;21069;-86
2023/11/30 02:57:41;;;;;;;7.27;4.70;;;;;;;;;;4936826;29;20619;-86
2023/11/30 03:00:47;;;;;;;6.17;4.00;;;;;;;;;;4937133;29;20879;-86
2023/11/30 03:03:51;;;;;;;6.27;4.50;;;;;;;;;;4937443;29;21077;-86
2023/11/30 03:06:55;;;;;;;4.77;3.83;;;;;;;;;;4937104;29;20616;-85
2023/11/30 03:09:59;;;;;;;5.77;4.37;;;;;;;;;;4915299;29;20934;-86
2023/11/30 03:13:04;;;;;;;6.30;4.50;;;;;;;;;;4925338;29;20552;-86
2023/11/30 03:16:08;;;;;;;5.50;4.40;;;;;;;;;;4937613;29;21164;-86
2023/11/30 03:19:12;;;;;;;5.67;4.07;;;;;;;;;;4936568;29;20544;-85
2023/11/30 03:22:16;;;;;;;5.57;4.37;;;;;;;;;;4936869;29;20871;-86
2023/11/30 03:25:20;;;;;;;7.43;4.63;;;;;;;;;;4936799;29;20541;-86
2023/11/30 03:28:24;;;;;;;6.03;4.20;;;;;;;;;;4925288;29;20616;-85
2023/11/30 03:31:29;;;;;;;6.23;4.63;;;;;;;;;;4936945;29;20607;-85
2023/11/30 03:34:33;;;;;;;6.30;4.23;;;;;;;;;;4925681;29;20560;-85
2023/11/30 03:37:40;;;;;;;5.27;4.23;;;;;;;;;;4925447;29;20615;-86
2023/11/30 03:40:44;;;;;;;7.37;4.37;;;;;;;;;;4936620;29;20541;-86
2023/11/30 03:43:48;;;;;;;6.40;4.17;;;;;;;;;;4926113;29;20549;-86
2023/11/30 03:46:52;;;;;;;7.33;4.23;;;;;;;;;;4914771;29;20616;-85
2023/11/30 03:49:57;;;;;;;6.23;4.47;;;;;;;;;;4925941;29;20950;-85
2023/11/30 03:53:00;;;;;;;6.17;4.00;;;;;;;;;;4925691;29;20537;-86
2023/11/30 03:56:05;;;;;;;5.97;4.23;;;;;;;;;;4940256;29;20540;-86
2023/11/30 03:59:12;;;;;;;5.53;4.20;;;;;;;;;;4940274;29;21069;-86
2023/11/30 04:02:16;;;;;;;5.90;4.33;;;;;;;;;;4940186;29;20541;-86
2023/11/30 04:05:20;;;;;;;6.50;4.47;;;;;;;;;;4929154;29;21113;-86
2023/11/30 04:08:24;;;;;;;6.03;4.00;;;;;;;;;;4939924;29;20619;-86
2023/11/30 04:11:28;;;;;;;6.50;4.73;;;;;;;;;;4939816;29;20604;-86
2023/11/30 04:14:32;;;;;;;5.90;4.40;;;;;;;;;;4929093;29;20540;-86
2023/11/30 04:17:37;;;;;;;6.10;4.47;;;;;;;;;;4928686;29;20647;-86
2023/11/30 04:20:41;;;;;;;7.03;4.20;;;;;;;;;;4940152;29;20544;-86
2023/11/30 04:23:45;;;;;;;5.87;4.00;;;;;;;;;;4928840;29;20537;-86
2023/11/30 04:26:51;;;;;;;6.10;4.20;;;;;;;;;;4939082;29;20623;-86
2023/11/30 04:29:54;;;;;;;7.03;4.70;;;;;;;;;;4939314;29;20600;-86
2023/11/30 04:32:59;;;;;;;7.13;4.53;;;;;;;;;;4939743;29;20548;-86
2023/11/30 04:36:04;;;;;;;5.80;4.67;;;;;;;;;;4939221;29;21093;-87
2023/11/30 04:39:08;;;;;;;6.03;4.30;;;;;;;;;;4939457;29;21076;-86
2023/11/30 04:42:12;;;;;;;5.37;3.97;;;;;;;;;;4939549;29;20536;-86
2023/11/30 04:45:17;;;;;;;4.73;3.60;;;;;;;;;;4940557;29;20544;-86
2023/11/30 04:48:21;;;;;;;6.67;4.10;;;;;;;;;;4927863;29;20620;-86
2023/11/30 04:51:25;;;;;;;7.63;4.47;;;;;;;;;;4928295;29;20591;-86
2023/11/30 04:54:29;;;;;;;5.67;4.10;;;;;;;;;;4927649;29;20544;-86
2023/11/30 04:57:33;;;;;;;5.60;4.07;;;;;;;;;;4927421;29;20612;-86
2023/11/30 05:00:38;;;;;;;5.57;3.90;;;;;;;;;;4939633;29;20541;-86
2023/11/30 05:03:43;;;;;;;5.60;4.00;;;;;;;;;;4927929;29;20878;-86
2023/11/30 05:06:47;;;;;;;5.27;4.17;;;;;;;;;;4927012;29;20624;-86
2023/11/30 05:09:51;;;;;;;5.57;4.33;;;;;;;;;;4939157;29;20886;-86
2023/11/30 05:12:55;;;;;;;7.93;5.33;;;;;;;;;;4938700;29;20887;-86
2023/11/30 05:16:00;;;;;;;8.00;4.70;;;;;;;;;;4939347;29;20541;-86
2023/11/30 05:19:04;;;;;;;7.90;5.37;;;;;;;;;;4927840;29;20537;-86
2023/11/30 05:22:08;;;;;;;7.43;4.60;;;;;;;;;;4939219;29;20536;-86
2023/11/30 05:25:12;;;;;;;7.23;4.67;;;;;;;;;;4938146;29;20540;-86
2023/11/30 05:28:16;;;;;;;5.30;3.80;;;;;;;;;;4938222;29;20616;-86
2023/11/30 05:31:20;;;;;;;5.10;4.10;;;;;;;;;;4939119;29;20592;-86
2023/11/30 05:34:24;;;;;;;5.17;3.83;;;;;;;;;;4939453;29;20545;-86
2023/11/30 05:37:28;;;;;;;6.23;4.27;;;;;;;;;;4927257;29;20686;-86
2023/11/30 05:40:33;;;;;;;4.90;4.30;;;;;;;;;;4926998;29;20544;-86
2023/11/30 05:43:37;;;;;;;6.50;4.17;;;;;;;;;;4938037;29;21081;-86
2023/11/30 05:46:41;;;;;;;5.27;4.37;;;;;;;;;;4926935;29;20620;-86
2023/11/30 05:49:46;;;;;;;8.83;3.77;;;;;;;;;;4937704;29;20540;-86
2023/11/30 05:52:50;;;;;;;4.33;3.83;;;;;;;;;;4937822;29;20533;-86
2023/11/30 05:55:54;;;;;;;4.90;3.90;;;;;;;;;;4938342;29;20545;-86
2023/11/30 05:58:58;;;;;;;5.30;3.80;;;;;;;;;;4937707;29;20544;-86
2023/11/30 06:02:04;;;;;;;5.53;4.07;;;;;;;;;;4926806;29;20891;-86
2023/11/30 06:05:09;;;;;;;8.13;4.10;;;;;;;;;;4938161;29;20541;-86
2023/11/30 06:08:13;;;;;;;7.10;3.80;;;;;;;;;;4915468;29;20950;-85
2023/11/30 06:11:17;;;;;;;5.33;4.10;;;;;;;;;;4937711;29;20588;-86
2023/11/30 06:14:22;;;;;;;5.40;3.67;;;;;;;;;;4926605;29;21072;-86
2023/11/30 06:17:26;;;;;;;4.60;3.90;;;;;;;;;;4935233;29;20651;-86
2023/11/30 06:20:31;;;;;;;7.17;3.93;;;;;;;;;;4927451;29;20545;-85
2023/11/30 06:23:35;;;;;;;4.60;3.67;;;;;;;;;;4938496;29;20560;-85
2023/11/30 06:26:41;;;;;;;4.83;3.87;;;;;;;;;;4939613;29;20564;-85
2023/11/30 06:29:45;;;;;;;5.73;4.20;;;;;;;;;;4940562;29;20556;-85
2023/11/30 06:32:50;;;;;;;4.37;3.77;;;;;;;;;;4928212;29;20553;-85
2023/11/30 06:35:54;;;;;;;4.47;3.90;;;;;;;;;;4938735;29;20895;-84
2023/11/30 06:38:58;;;;;;;5.73;4.07;;;;;;;;;;4917042;29;20560;-85
2023/11/30 06:42:02;;;;;;;4.27;3.23;;;;;;;;;;4938839;29;21105;-85
2023/11/30 06:45:07;;;;;;;6.47;3.87;;;;;;;;;;4938787;29;20556;-84
2023/11/30 06:48:11;;;;;;;7.23;4.50;;;;;;;;;;4939575;29;20616;-84
2023/11/30 06:51:16;;;;;;;5.47;4.30;;;;;;;;;;4938858;29;20611;-84
2023/11/30 06:54:21;;;;;;;7.67;5.83;;;;;;;;;;4939547;29;20544;-84
2023/11/30 06:57:26;;;;;;;8.37;5.03;;;;;;;;;;4938625;29;20623;-84
2023/11/30 07:00:30;;;;;;;7.27;4.90;;;;;;;;;;4939903;29;20541;-84
2023/11/30 07:03:34;;;;;;;6.23;4.40;;;;;;;;;;4940413;29;20544;-84
2023/11/30 07:06:38;;;;;;;4.60;4.07;;;;;;;;;;4938917;29;20863;-84
2023/11/30 07:09:43;;;;;;;6.77;4.37;;;;;;;;;;4938979;29;20549;-84
2023/11/30 07:12:47;;;;;;;7.73;4.60;;;;;;;;;;4938187;29;20616;-84
2023/11/30 07:15:51;;;;;;;7.00;4.73;;;;;;;;;;4938933;29;20548;-84
2023/11/30 07:18:55;;;;;;;8.17;5.80;;;;;;;;;;4938688;29;20556;-83
2023/11/30 07:21:59;;;;;;;9.00;4.73;;;;;;;;;;4939267;29;20536;-83
2023/11/30 07:25:04;;;;;;;7.30;5.23;;;;;;;;;;4937374;29;20541;-84
2023/11/30 07:28:08;;;;;;;6.33;4.40;;;;;;;;;;4937212;29;20620;-84
2023/11/30 07:31:19;;;;;;;5.27;4.20;;;;;;;;;;4942257;29;20588;-83
2023/11/30 07:34:24;;;;;;;6.03;4.23;;;;;;;;;;4941944;29;20540;-83
2023/11/30 07:37:27;;;;;;;5.03;4.17;;;;;;;;;;4942283;29;20619;-83
2023/11/30 07:40:32;;;;;;;5.90;4.10;;;;;;;;;;4942482;29;20548;-83
2023/11/30 07:43:36;;;;;;;6.00;4.47;;;;;;;;;;4941733;29;20883;-83
2023/11/30 07:46:40;;;;;;;5.30;3.97;;;;;;;;;;4941832;29;20891;-83
2023/11/30 07:49:43;;;;;;;9.13;4.30;;;;;;;;;;4941514;29;20552;-83
2023/11/30 07:52:48;;;;;;;6.10;4.00;;;;;;;;;;4940818;29;20938;-83
2023/11/30 07:55:56;;;;;;;5.63;4.37;;;;;;;;;;4941909;29;20548;-84
2023/11/30 07:59:00;;;;;;;7.57;3.90;;;;;;;;;;4941445;29;21077;-85
2023/11/30 08:02:05;;;;;;;5.23;3.90;;;;;;;;;;4928996;29;20540;-85
2023/11/30 08:05:12;;;;;;;5.27;3.97;;;;;;;;;;4940133;29;20884;-85
2023/11/30 08:08:17;;;;;;;6.10;4.17;;;;;;;;;;4941036;29;20631;-85
2023/11/30 08:11:21;;;;;;;7.70;4.40;;;;;;;;;;4940862;29;20588;-85
2023/11/30 08:14:25;;;;;;;5.07;3.70;;;;;;;;;;4940868;29;20899;-84
2023/11/30 08:17:30;;;;;;;5.63;3.67;;;;;;;;;;4939956;29;20646;-84
2023/11/30 08:20:37;;;;;;;6.67;4.17;;;;;;;;;;4940067;29;20540;-84
2023/11/30 08:23:42;;;;;;;5.83;3.90;;;;;;;;;;4939962;29;20537;-84
2023/11/30 08:26:46;;;;;;;7.23;4.17;;;;;;;;;;4940171;29;21224;-84
2023/11/30 08:29:51;;;;;;;7.30;4.50;;;;;;;;;;4939948;29;20548;-84
2023/11/30 08:32:55;;;;;;;6.17;3.97;;;;;;;;;;4940266;29;20595;-85
2023/11/30 08:36:00;;;;;;;5.60;4.07;;;;;;;;;;4940449;29;20545;-86
2023/11/30 08:39:05;;;;;;;5.47;3.80;;;;;;;;;;4928818;29;20557;-85
2023/11/30 08:42:09;;;;;;;7.93;4.23;;;;;;;;;;4938693;29;20541;-85
2023/11/30 08:45:13;;;;;;;5.80;4.27;;;;;;;;;;4929027;29;20557;-85
2023/11/30 08:48:18;;;;;;;7.67;4.27;;;;;;;;;;4940051;29;20623;-85
2023/11/30 08:51:22;;;;;;;5.57;4.07;;;;;;;;;;4940012;29;20599;-85
2023/11/30 08:54:26;;;;;;;4.20;3.67;;;;;;;;;;4939715;29;20540;-85
2023/11/30 08:57:30;;;;;;;5.17;3.57;;;;;;;;;;4939486;29;20616;-84
2023/11/30 09:00:35;;;;;;;6.97;3.83;;;;;;;;;;4940220;29;20540;-85
2023/11/30 09:03:39;;;;;;;4.50;3.60;;;;;;;;;;4941400;29;20541;-85
2023/11/30 09:06:43;;;;;;;6.57;4.27;;;;;;;;;;4940592;29;20623;-84
2023/11/30 09:09:48;;;;;;;4.73;4.03;;;;;;;;;;4939308;29;20545;-85
2023/11/30 09:12:52;;;;;;;6.03;4.30;;;;;;;;;;4939119;29;20600;-85
2023/11/30 09:15:57;;;;;;;5.17;3.90;;;;;;;;;;4939515;29;20601;-85
2023/11/30 09:19:01;;;;;;;6.70;3.67;;;;;;;;;;4938477;29;20899;-84
2023/11/30 09:22:06;;;;;;;5.83;4.13;;;;;;;;;;4940026;29;20536;-85
2023/11/30 09:25:11;;;;;;;6.43;4.10;;;;;;;;;;4940009;29;20544;-84
2023/11/30 09:28:15;;;;;;;4.77;3.57;;;;;;;;;;4939142;29;20954;-84
2023/11/30 09:31:20;;;;;;;6.67;4.07;;;;;;;;;;4927683;29;20541;-85
2023/11/30 09:34:25;;;;;;;6.53;4.20;;;;;;;;;;4940272;29;20544;-85
2023/11/30 09:37:29;;;;;;;5.20;4.03;;;;;;;;;;4939514;29;20616;-85
2023/11/30 09:40:34;;;;;;;5.87;4.10;;;;;;;;;;4940079;29;20544;-85
2023/11/30 09:43:38;;;;;;;4.60;3.90;;;;;;;;;;4928198;29;20871;-85
2023/11/30 09:46:43;;;;;;;7.87;4.47;;;;;;;;;;4940265;29;20970;-85
2023/11/30 09:49:47;;;;;;;7.17;4.33;;;;;;;;;;4939247;29;20540;-85
2023/11/30 09:52:52;;;;;;;6.03;4.60;;;;;;;;;;4939434;29;20596;-85
2023/11/30 09:55:56;;;;;;;5.53;4.03;;;;;;;;;;4938931;29;20560;-85
2023/11/30 09:59:00;;;;;;;6.97;4.87;;;;;;;;;;4939572;29;20537;-85
2023/11/30 10:02:08;;;;;;;6.67;4.57;;;;;;;;;;4939832;29;21069;-85
2023/11/30 10:05:12;;;;;;;5.30;4.20;;;;;;;;;;4940099;29;20561;-86
2023/11/30 10:08:17;;;;;;;8.83;4.60;;;;;;;;;;4939615;29;21180;-85
2023/11/30 10:11:21;;;;;;;6.93;4.87;;;;;;;;;;4940443;29;21093;-85
2023/11/30 10:14:25;;;;;;;7.23;4.83;;;;;;;;;;4940250;29;20541;-85
2023/11/30 10:17:29;;;;;;;7.97;4.80;;;;;;;;;;4939565;29;20635;-85
2023/11/30 10:20:37;;;;;;;7.47;4.77;;;;;;;;;;4939572;29;20903;-85
2023/11/30 10:23:44;;;;;;;7.07;4.90;;;;;;;;;;4939687;29;20536;-85
2023/11/30 10:26:50;;;;;;;9.77;4.67;;;;;;;;;;4940267;29;20970;-85
2023/11/30 10:30:00;;;;;;;7.53;4.83;;;;;;;;;;4939950;29;20545;-85
2023/11/30 10:33:11;;;;;;;7.23;4.57;;;;;;;;;;4939666;29;20604;-86
2023/11/30 10:36:17;;;;;;;6.83;4.97;;;;;;;;;;4939275;29;20540;-86
2023/11/30 10:39:23;;;;;;;6.90;5.10;;;;;;;;;;4927160;29;20556;-85
2023/11/30 10:42:27;;;;;;;9.40;4.93;;;;;;;;;;4939558;29;20537;-85
2023/11/30 10:45:37;;;;;;;9.67;5.43;;;;;;;;;;4928796;29;20544;-85
2023/11/30 10:48:41;;;;;;;7.77;5.00;;;;;;;;;;4938520;29;20950;-85
2023/11/30 10:51:45;;;;;;;6.37;4.90;;;;;;;;;;4926653;29;20549;-85
2023/11/30 10:55:00;;;;;;;8.77;5.50;;;;;;;;;;4938524;29;20552;-85
2023/11/30 10:58:07;;;;;;;7.27;5.30;;;;;;;;;;4939042;29;20624;-84
2023/11/30 11:01:13;;;;;;;8.13;5.83;;;;;;;;;;4940205;29;20548;-84
2023/11/30 11:04:17;;;;;;;6.67;4.90;;;;;;;;;;4928422;29;20545;-84
2023/11/30 11:07:22;;;;;;;7.87;5.00;;;;;;;;;;4941257;29;20619;-84
2023/11/30 11:10:27;;;;;;;7.60;5.40;;;;;;;;;;4938653;29;20548;-83
2023/11/30 11:13:34;;;;;;;10.23;6.00;;;;;;;;;;4927639;29;20616;-84
2023/11/30 11:16:44;;;;;;;22.90;9.17;;;;;;;;;;4927173;29;20583;-85
2023/11/30 11:19:48;;;;;;;42.13;16.23;;;;;;;;;;4939076;29;20561;-84
2023/11/30 11:23:13;;;;;;;44.00;15.37;;;;;;;;;;4940367;29;21096;-84
2023/11/30 11:26:17;;;;;;;17.17;8.07;;;;;;;;;;4938627;29;20544;-84
2023/11/30 11:29:22;;;;;;;11.20;7.17;;;;;;;;;;4939328;29;20184;-83
2023/11/30 11:32:26;;;;;;;10.60;6.57;;;;;;;;;;4938394;29;20220;-84
2023/11/30 11:35:30;;;;;;;11.57;6.70;;;;;;;;;;4939301;29;20184;-84
2023/11/30 11:38:34;;;;;;;9.83;6.53;;;;;;;;;;4926764;29;20616;-84
2023/11/30 11:41:38;;;;;;;10.70;6.50;;;;;;;;;;4938408;29;20544;-84
2023/11/30 11:44:42;;;;;;;9.73;6.50;;;;;;;;;;4926958;29;20541;-84
2023/11/30 11:47:46;;;;;;;12.47;6.30;;;;;;;;;;4938321;29;20982;-85
2023/11/30 11:50:58;;;;;;;9.77;6.60;;;;;;;;;;4938612;29;20642;-84
2023/11/30 11:54:02;;;;;;;11.57;6.53;;;;;;;;;;4938884;29;20592;-84
2023/11/30 11:57:06;;;;;;;9.10;6.43;;;;;;;;;;4937752;29;20620;-84
2023/11/30 12:00:17;;;;;;;12.17;7.40;;;;;;;;;;4937519;29;20544;-84
2023/11/30 12:03:21;;;;;;;8.03;6.77;;;;;;;;;;4937485;29;20537;-84
2023/11/30 12:06:30;;;;;;;10.73;7.10;;;;;;;;;;4937974;29;20879;-84
2023/11/30 12:09:34;;;;;;;12.53;7.60;;;;;;;;;;4937775;29;21073;-83
2023/11/30 12:12:38;;;;;;;11.53;7.30;;;;;;;;;;4937366;29;20592;-83
2023/11/30 12:15:43;;;;;;;10.57;7.70;;;;;;;;;;4938416;29;20544;-83
2023/11/30 12:18:48;;;;;;;11.93;7.33;;;;;;;;;;4941507;29;20607;-84
2023/11/30 12:21:52;;;;;;;11.17;7.50;;;;;;;;;;4939617;29;20663;-84
2023/11/30 12:24:56;;;;;;;10.27;7.50;;;;;;;;;;4940382;29;20544;-85
2023/11/30 12:28:01;;;;;;;10.83;7.20;;;;;;;;;;4929298;29;20615;-85
2023/11/30 12:31:05;;;;;;;9.37;7.23;;;;;;;;;;4940496;29;20548;-86
2023/11/30 12:34:09;;;;;;;9.80;7.10;;;;;;;;;;4938722;29;20592;-87
2023/11/30 12:37:13;;;;;;;10.03;7.20;;;;;;;;;;4938462;29;20619;-86
2023/11/30 12:40:17;;;;;;;10.70;7.03;;;;;;;;;;4940036;29;20295;-87
2023/11/30 12:43:22;;;;;;;10.40;7.50;;;;;;;;;;4938199;29;20540;-87
2023/11/30 12:46:26;;;;;;;7.63;6.80;;;;;;;;;;4938949;29;20536;-86
2023/11/30 12:49:30;;;;;;;9.00;6.90;;;;;;;;;;4938518;29;20180;-86
2023/11/30 12:52:34;;;;;;;9.83;7.07;;;;;;;;;;4938653;29;20587;-85
2023/11/30 12:55:38;;;;;;;9.23;6.87;;;;;;;;;;4938184;29;20536;-86
2023/11/30 12:58:42;;;;;;;11.70;6.93;;;;;;;;;;4937718;29;20612;-86
2023/11/30 13:01:47;;;;;;;10.00;7.57;;;;;;;;;;4938369;29;20536;-86
2023/11/30 13:04:50;;;;;;;10.97;7.70;;;;;;;;;;4926857;29;20544;-86
2023/11/30 13:07:55;;;;;;;9.60;6.87;;;;;;;;;;4937699;29;20632;-86
2023/11/30 13:10:59;;;;;;;8.20;6.40;;;;;;;;;;4938364;29;20545;-86
2023/11/30 13:14:03;;;;;;;10.90;7.87;;;;;;;;;;4938777;29;20591;-85
2023/11/30 13:17:08;;;;;;;10.43;7.07;;;;;;;;;;4942085;29;20643;-85
2023/11/30 13:20:15;;;;;;;11.93;6.67;;;;;;;;;;4942144;29;21077;-84
2023/11/30 13:23:19;;;;;;;8.23;6.43;;;;;;;;;;4941673;29;20176;-86
2023/11/30 13:26:23;;;;;;;6.87;5.13;;;;;;;;;;4940199;29;20184;-85
2023/11/30 13:29:27;;;;;;;8.00;5.60;;;;;;;;;;4941735;29;20188;-85
2023/11/30 13:32:35;;;;;;;6.33;5.30;;;;;;;;;;4939894;29;20188;-85
2023/11/30 13:35:39;;;;;;;10.47;5.80;;;;;;;;;;4939240;29;20192;-84
2023/11/30 13:38:44;;;;;;;6.73;5.33;;;;;;;;;;4939685;29;20224;-85
2023/11/30 13:41:48;;;;;;;8.47;6.07;;;;;;;;;;4928457;29;20188;-85
2023/11/30 13:44:52;;;;;;;8.40;6.47;;;;;;;;;;4940243;29;20529;-85
2023/11/30 13:47:57;;;;;;;7.57;5.93;;;;;;;;;;4940806;29;20224;-85
2023/11/30 13:51:01;;;;;;;14.03;7.20;;;;;;;;;;4940606;29;20184;-85
2023/11/30 13:54:05;;;;;;;10.70;6.80;;;;;;;;;;4940799;29;20219;-85
2023/11/30 13:57:09;;;;;;;9.27;7.00;;;;;;;;;;4940041;29;20227;-85
2023/11/30 14:00:14;;;;;;;12.00;8.43;;;;;;;;;;4939849;29;20184;-85
2023/11/30 14:03:18;;;;;;;31.37;12.33;;;;;;;;;;4928012;29;20184;-85
2023/11/30 14:06:22;;;;;;;20.93;10.53;;;;;;;;;;4917385;29;20195;-85
2023/11/30 14:09:26;;;;;;;11.43;8.07;;;;;;;;;;4938948;29;20558;-85
2023/11/30 14:12:30;;;;;;;15.57;9.27;;;;;;;;;;4925806;29;20531;-85
2023/11/30 14:15:34;;;;;;;13.17;8.73;;;;;;;;;;4937947;29;20177;-85
2023/11/30 14:18:38;;;;;;;11.83;8.07;;;;;;;;;;4936525;29;20643;-86
2023/11/30 14:21:43;;;;;;;10.17;7.23;;;;;;;;;;4927123;29;20180;-84
2023/11/30 14:24:47;;;;;;;9.07;7.57;;;;;;;;;;4939393;29;20541;-84
2023/11/30 14:27:51;;;;;;;11.77;7.93;;;;;;;;;;4939744;29;20223;-84
2023/11/30 14:30:55;;;;;;;10.47;8.23;;;;;;;;;;4939472;29;20183;-84
2023/11/30 14:33:59;;;;;;;10.57;8.27;;;;;;;;;;4939629;29;20608;-85
2023/11/30 14:37:04;;;;;;;12.60;8.63;;;;;;;;;;4916842;29;21168;-86
2023/11/30 14:40:10;;;;;;;10.93;7.97;;;;;;;;;;4927652;29;20548;-86
2023/11/30 14:43:15;;;;;;;15.23;8.27;;;;;;;;;;4938080;29;21077;-85
2023/11/30 14:46:19;;;;;;;12.23;8.70;;;;;;;;;;4926559;29;20545;-86
2023/11/30 14:49:23;;;;;;;12.93;9.23;;;;;;;;;;4938387;29;20540;-85
2023/11/30 14:52:27;;;;;;;13.93;9.27;;;;;;;;;;4937924;29;20544;-85
2023/11/30 14:55:32;;;;;;;10.93;8.20;;;;;;;;;;4925460;29;21073;-85
2023/11/30 14:58:36;;;;;;;10.00;7.00;;;;;;;;;;4935989;29;20615;-86
2023/11/30 15:01:40;;;;;;;11.00;6.90;;;;;;;;;;4914669;29;20180;-85
2023/11/30 15:04:44;;;;;;;10.50;6.77;;;;;;;;;;4936386;29;20540;-86
2023/11/30 15:07:48;;;;;;;8.77;6.63;;;;;;;;;;4936583;29;20620;-85
2023/11/30 15:10:53;;;;;;;9.30;7.10;;;;;;;;;;4926147;29;20549;-85
2023/11/30 15:13:57;;;;;;;11.27;7.70;;;;;;;;;;4925898;29;20592;-85
2023/11/30 15:17:00;;;;;;;14.70;12.27;;;;;;;;;;4925105;29;20643;-85
2023/11/30 15:20:09;;;;;;;10.50;8.57;;;;;;;;;;4936478;29;20195;-85
2023/11/30 15:23:13;;;;;;;10.57;8.37;;;;;;;;;;4936940;29;20537;-85
2023/11/30 15:26:18;;;;;;;14.73;8.57;;;;;;;;;;4925656;29;20883;-85
2023/11/30 15:29:22;;;;;;;14.70;10.63;;;;;;;;;;4937359;29;20548;-85
2023/11/30 15:32:26;;;;;;;36.10;20.07;;;;;;;;;;4925928;29;20941;-85
2023/11/30 15:35:30;;;;;;;13.50;9.17;;;;;;;;;;4935791;29;20550;-86
2023/11/30 15:38:35;;;;;;;47.03;26.00;;;;;;;;;;4935755;29;20615;-87
2023/11/30 15:41:50;;;;;;;30.23;17.57;;;;;;;;;;4924892;29;20563;-87
2023/11/30 15:44:54;;;;;;;19.43;13.13;;;;;;;;;;4935787;29;20556;-87
2023/11/30 15:47:58;;;;;;;14.27;9.57;;;;;;;;;;4935422;29;20647;-87
2023/11/30 15:51:03;;;;;;;10.30;7.33;;;;;;;;;;4938139;29;20544;-86
2023/11/30 15:54:08;;;;;;;10.83;7.93;;;;;;;;;;4939835;29;20604;-87
2023/11/30 15:57:11;;;;;;;12.20;7.33;;;;;;;;;;4939199;29;20615;-87
2023/11/30 16:00:18;;;;;;;15.30;8.23;;;;;;;;;;4928305;29;20548;-87
2023/11/30 16:03:24;;;;;;;18.87;10.13;;;;;;;;;;4939178;29;20548;-87
2023/11/30 16:06:28;;;;;;;24.97;12.27;;;;;;;;;;4928094;29;20561;-87
2023/11/30 16:09:32;;;;;;;35.77;12.73;;;;;;;;;;4939164;29;20548;-87
2023/11/30 16:12:36;;;;;;;21.30;11.37;;;;;;;;;;4938921;29;21103;-87
2023/11/30 16:15:40;;;;;;;31.37;13.57;;;;;;;;;;4938976;29;20538;-87
2023/11/30 16:18:44;;;;;;;38.50;14.37;;;;;;;;;;4938984;29;20646;-87
2023/11/30 16:21:52;;;;;;;28.90;13.33;;;;;;;;;;4927783;29;21111;-86
2023/11/30 16:24:56;;;;;;;32.03;13.70;;;;;;;;;;4939001;29;20547;-87
2023/11/30 16:28:01;;;;;;;30.03;13.43;;;;;;;;;;4927567;29;20615;-87
2023/11/30 16:31:05;;;;;;;31.87;14.27;;;;;;;;;;4939402;29;20991;-87
2023/11/30 16:34:09;;;;;;;26.83;16.97;;;;;;;;;;4927424;29;20599;-87
2023/11/30 16:37:13;;;;;;;33.33;17.67;;;;;;;;;;4927745;29;20624;-87
2023/11/30 16:40:18;;;;;;;22.43;14.37;;;;;;;;;;4927906;29;20556;-87
2023/11/30 16:43:22;;;;;;;18.73;10.23;;;;;;;;;;4939405;29;20552;-86
2023/11/30 16:46:26;;;;;;;19.07;12.73;;;;;;;;;;4937982;29;20545;-86
2023/11/30 16:49:30;;;;;;;19.50;12.60;;;;;;;;;;4938951;29;20547;-87
2023/11/30 16:52:36;;;;;;;14.57;10.17;;;;;;;;;;4928175;29;20557;-86
2023/11/30 16:55:40;;;;;;;12.53;9.03;;;;;;;;;;4926315;29;20604;-84
2023/11/30 16:58:44;;;;;;;13.73;9.37;;;;;;;;;;4926499;29;20612;-84
2023/11/30 17:01:48;;;;;;;14.27;10.20;;;;;;;;;;4937377;29;20560;-85
2023/11/30 17:04:52;;;;;;;31.47;20.40;;;;;;;;;;4937894;29;20563;-86
2023/11/30 17:07:56;;;;;;;19.03;12.30;;;;;;;;;;4937576;29;20623;-86
2023/11/30 17:11:01;;;;;;;15.13;10.97;;;;;;;;;;4927309;29;20555;-86
2023/11/30 17:14:05;;;;;;;14.67;10.57;;;;;;;;;;4937678;29;20600;-86
2023/11/30 17:17:09;;;;;;;16.77;9.97;;;;;;;;;;4926445;29;21028;-87
2023/11/30 17:20:13;;;;;;;17.80;10.53;;;;;;;;;;4937748;29;20544;-86
2023/11/30 17:23:18;;;;;;;15.73;10.93;;;;;;;;;;4937762;29;20560;-86
2023/11/30 17:26:22;;;;;;;17.13;12.20;;;;;;;;;;4940086;29;20551;-84
2023/11/30 17:29:26;;;;;;;17.87;12.13;;;;;;;;;;4937368;29;20551;-84
2023/11/30 17:32:30;;;;;;;15.77;10.43;;;;;;;;;;4926977;29;20543;-87
2023/11/30 17:35:35;;;;;;;16.50;10.10;;;;;;;;;;4938548;29;20677;-86
2023/11/30 17:38:39;;;;;;;13.50;10.67;;;;;;;;;;4926535;29;20614;-86
2023/11/30 17:41:44;;;;;;;14.20;11.10;;;;;;;;;;4938043;29;20552;-86
2023/11/30 17:44:48;;;;;;;16.73;12.00;;;;;;;;;;4937236;29;20573;-86
2023/11/30 17:47:53;;;;;;;15.50;11.77;;;;;;;;;;4936696;29;20626;-86
2023/11/30 17:50:57;;;;;;;16.43;11.80;;;;;;;;;;4926226;29;20602;-89
2023/11/30 17:54:02;;;;;;;15.43;11.17;;;;;;;;;;4937251;29;20615;-87
2023/11/30 17:57:06;;;;;;;17.23;12.30;;;;;;;;;;4925925;29;20635;-86
2023/11/30 18:00:11;;;;;;;17.10;12.10;;;;;;;;;;4929987;29;20586;-86
2023/11/30 18:03:17;;;;;;;15.47;11.10;;;;;;;;;;4956791;29;20562;-86
2023/11/30 18:06:21;;;;;;;15.27;11.30;;;;;;;;;;4944855;29;20549;-86
2023/11/30 18:09:26;;;;;;;14.20;10.57;;;;;;;;;;4956715;29;20550;-86
2023/11/30 18:12:30;;;;;;;14.47;10.73;;;;;;;;;;4944564;28;20568;-86
2023/11/30 18:15:34;;;;;;;16.83;11.10;;;;;;;;;;4955606;29;20610;-87
2023/11/30 18:18:38;;;;;;;13.40;9.63;;;;;;;;;;4946360;29;20697;-86